Погода Энженьейру-Белтранна 2 недели

Парана, Бразилия

22 июля-04 августа
  • 22июля
    Сегодня
    +14°
    +29°
    Ясно и безоблачно
    ВремяПогодаТемператураВлажностьДавлениеВетер, м/сВероятность осадков
    00:00Ясно и безоблачно+18°C82 %737 мм2.2 м/с5 %
    03:00Ясно и безоблачно+17°C83 %737 мм1.9 м/с5 %
    06:00Ясно и безоблачно+15°C86 %737 мм1.9 м/с5 %
    09:00Ясно и безоблачно+18°C72 %738 мм1.8 м/с5 %
    12:00Ясно и безоблачно+24°C48 %738 мм1.3 м/с5 %
    15:00Ясно и безоблачно+28°C35 %737 мм0.6 м/с5 %
    18:00Ясно и безоблачно+24°C54 %736 мм2.2 м/с5 %
    21:00Ясно и безоблачно+21°C68 %737 мм2.1 м/с5 %
  • 23июля
    Вторник
    +13°
    +29°
    Практически безоблачно
    ВремяПогодаТемператураВлажностьДавлениеВетер, м/сВероятность осадков
    00:00Ясно и безоблачно+19°C76 %737 мм2.2 м/с5 %
    03:00Ясно и безоблачно+16°C81 %737 мм2.2 м/с5 %
    06:00Ясно и безоблачно+15°C82 %737 мм2.2 м/с5 %
    09:00Ясно и безоблачно+18°C71 %739 мм2.2 м/с5 %
    12:00Ясно и безоблачно+24°C49 %738 мм2.6 м/с5 %
    15:00Практически безоблачно+27°C41 %736 мм1.8 м/с5 %
    18:00Небольшая облачность+25°C59 %736 мм2.9 м/с5 %
    21:00Небольшая облачность+20°C65 %736 мм2.1 м/с5 %
  • 24июля
    Среда
    +14°
    +30°
    Облачно с прояснениями
    ВремяПогодаТемператураВлажностьДавлениеВетер, м/сВероятность осадков
    00:00Небольшая облачность+17°C63 %737 мм2.2 м/с5 %
    03:00Небольшая облачность+15°C65 %735 мм2.3 м/с5 %
    06:00Ясно и безоблачно+13°C68 %736 мм2.5 м/с5 %
    09:00Небольшая облачность+18°C58 %738 мм2.4 м/с5 %
    12:00Облачно с прояснениями+25°C39 %738 мм1.9 м/с5 %
    15:00Облачно с прояснениями+28°C35 %736 мм1.8 м/с5 %
    18:00Ясно и безоблачно+26°C50 %735 мм1.8 м/с5 %
    21:00Ясно и безоблачно+21°C69 %736 мм1.9 м/с5 %
  • 25июля
    Четверг
    +16°
    +31°
    Ясно и безоблачно
    ВремяПогодаТемператураВлажностьДавлениеВетер, м/сВероятность осадков
    00:00Ясно и безоблачно+19°C74 %736 мм2.1 м/с5 %
    03:00Ясно и безоблачно+17°C75 %736 мм2.1 м/с5 %
    06:00Ясно и безоблачно+16°C80 %735 мм2.1 м/с5 %
    09:00Ясно и безоблачно+19°C67 %737 мм1.4 м/с5 %
    12:00Ясно и безоблачно+26°C42 %736 мм1.0 м/с5 %
    15:00Ясно и безоблачно+30°C31 %734 мм1.7 м/с5 %
    18:00Ясно и безоблачно+28°C44 %733 мм2.3 м/с5 %
    21:00Ясно и безоблачно+23°C53 %734 мм0.5 м/с5 %
  • 26июля
    Пятница
    +16°
    +30°
    Облачно с прояснениями
    ВремяПогодаТемператураВлажностьДавлениеВетер, м/сВероятность осадков
    00:00Практически безоблачно+20°C76 %734 мм1.9 м/с5 %
    03:00Облачно с прояснениями+19°C84 %733 мм1.9 м/с5 %
    06:00Облачно с прояснениями+17°C84 %733 мм2.0 м/с5 %
    09:00Облачно с прояснениями+19°C68 %735 мм1.5 м/с5 %
    12:00Облачно с прояснениями+26°C42 %735 мм1.1 м/с5 %
    15:00Облачно с прояснениями+30°C35 %734 мм1.3 м/с5 %
    18:00Облачно с прояснениями+28°C52 %734 мм1.4 м/с5 %
    21:00Облачно с прояснениями+23°C75 %734 мм2.0 м/с5 %
Мы используем cookies
Соглашаюсь